createdAt,value
2018-09-19T00:02:12.669Z,3.75
2018-09-19T00:04:43.786Z,3.70
2018-09-19T00:07:14.546Z,3.52
2018-09-19T00:09:45.470Z,3.83
2018-09-19T00:12:16.282Z,3.47
2018-09-19T00:14:47.725Z,3.46
2018-09-19T00:17:18.420Z,3.60
2018-09-19T00:19:50.297Z,3.52
2018-09-19T00:22:20.596Z,3.54
2018-09-19T00:24:51.508Z,3.95
2018-09-19T00:27:28.288Z,4.14
2018-09-19T00:29:58.269Z,3.70
2018-09-19T00:32:28.335Z,3.90
2018-09-19T00:34:58.280Z,3.75
2018-09-19T00:37:28.497Z,3.98
2018-09-19T00:39:58.213Z,3.67
2018-09-19T00:42:28.776Z,3.60
2018-09-19T00:44:59.513Z,3.95
2018-09-19T00:47:30.851Z,3.64
2018-09-19T00:50:01.573Z,3.75
2018-09-19T00:52:32.440Z,4.03
2018-09-19T00:55:03.858Z,3.74
2018-09-19T00:57:34.829Z,3.80
2018-09-19T01:00:05.799Z,3.67
2018-09-19T01:02:36.666Z,3.65
2018-09-19T01:05:08.163Z,3.67
2018-09-19T01:07:38.641Z,3.67
2018-09-19T01:10:09.385Z,3.77
2018-09-19T01:12:41.104Z,4.06
2018-09-19T01:15:11.549Z,3.70
2018-09-19T01:17:42.581Z,3.67
2018-09-19T01:20:13.387Z,4.10
2018-09-19T01:22:44.886Z,3.66
2018-09-19T01:25:15.650Z,4.12
2018-09-19T01:27:46.514Z,3.77
2018-09-19T01:30:17.626Z,4.28
2018-09-19T01:32:48.422Z,3.95
2018-09-19T01:35:19.723Z,4.02
2018-09-19T01:37:50.595Z,3.27
2018-09-19T01:40:21.463Z,3.58
2018-09-19T01:42:52.869Z,4.10
2018-09-19T01:45:23.774Z,3.77
2018-09-19T01:47:54.639Z,4.17
2018-09-19T01:50:25.422Z,4.10
2018-09-19T01:52:56.612Z,4.04
2018-09-19T01:55:26.440Z,3.65
2018-09-19T01:57:57.685Z,3.68
2018-09-19T02:00:32.497Z,3.95
2018-09-19T02:03:02.199Z,4.25
2018-09-19T02:05:32.409Z,4.10
2018-09-19T02:08:02.212Z,4.80
2018-09-19T02:10:32.618Z,4.30
2018-09-19T02:13:03.480Z,4.85
2018-09-19T02:15:34.887Z,5.72
2018-09-19T02:18:05.730Z,6.10
2018-09-19T02:20:36.639Z,5.35
2018-09-19T02:23:07.517Z,6.12
2018-09-19T02:25:38.773Z,5.26
2018-09-19T02:28:09.750Z,5.60
2018-09-19T02:30:40.416Z,5.10
2018-09-19T02:33:11.809Z,5.38
2018-09-19T02:35:42.574Z,5.03
2018-09-19T02:38:13.394Z,5.92
2018-09-19T02:40:44.885Z,5.68
2018-09-19T02:43:15.614Z,6.00
2018-09-19T02:45:46.437Z,6.05
2018-09-19T02:48:17.673Z,5.50
2018-09-19T02:50:48.484Z,5.55
2018-09-19T02:53:19.697Z,6.22
2018-09-19T02:55:50.516Z,5.80
2018-09-19T02:58:21.733Z,6.22
2018-09-19T03:00:52.521Z,6.05
2018-09-19T03:03:23.645Z,6.10
2018-09-19T03:05:54.527Z,5.60
2018-09-19T03:08:25.386Z,6.08
2018-09-19T03:10:56.769Z,6.00
2018-09-19T03:13:27.775Z,5.60
2018-09-19T03:15:58.618Z,6.10
2018-09-19T03:18:29.352Z,5.45
2018-09-19T03:21:01.411Z,5.88
2018-09-19T03:23:31.595Z,6.03
2018-09-19T03:26:02.523Z,6.17
2018-09-19T03:28:33.987Z,6.28
2018-09-19T03:31:04.809Z,6.33
2018-09-19T03:33:35.628Z,5.35
2018-09-19T03:36:06.825Z,6.08
2018-09-19T03:38:37.659Z,5.75
2018-09-19T03:41:08.324Z,5.85
2018-09-19T03:43:39.734Z,5.56
2018-09-19T03:46:10.457Z,5.87
2018-09-19T03:48:42.129Z,6.44
2018-09-19T03:51:12.648Z,6.05
2018-09-19T03:53:43.487Z,5.85
2018-09-19T03:56:14.990Z,5.50
2018-09-19T03:58:45.868Z,5.90
2018-09-19T04:01:16.577Z,6.30
2018-09-19T04:03:53.562Z,6.15
2018-09-19T04:06:23.288Z,5.97
2018-09-19T04:08:53.095Z,5.70
2018-09-19T04:11:23.027Z,5.73
2018-09-19T04:13:52.813Z,5.55
2018-09-19T04:16:22.666Z,5.57
2018-09-19T04:18:54.315Z,6.35
2018-09-19T04:21:25.207Z,5.67
2018-09-19T04:23:55.769Z,6.05
2018-09-19T04:26:26.548Z,5.75
2018-09-19T04:28:57.383Z,6.33
2018-09-19T04:31:28.816Z,6.10
2018-09-19T04:33:59.540Z,6.83
2018-09-19T04:36:29.424Z,6.20
2018-09-19T04:39:00.755Z,6.86
2018-09-19T04:41:31.716Z,6.37
2018-09-19T04:44:02.508Z,6.87
2018-09-19T04:46:33.824Z,7.42
2018-09-19T04:49:05.035Z,6.65
2018-09-19T04:51:35.918Z,6.70
2018-09-19T04:54:06.664Z,6.60
2018-09-19T04:56:38.094Z,6.72
2018-09-19T04:59:08.675Z,6.70
2018-09-19T05:01:39.574Z,6.22
2018-09-19T05:04:10.497Z,6.65
2018-09-19T05:06:41.914Z,6.65
2018-09-19T05:09:12.736Z,6.70
2018-09-19T05:11:43.630Z,6.90
2018-09-19T05:14:16.300Z,6.15
2018-09-19T05:16:46.181Z,7.03
2018-09-19T05:19:16.769Z,6.55
2018-09-19T05:21:47.641Z,5.80
2018-09-19T05:24:18.410Z,6.47
2018-09-19T05:26:50.407Z,6.26
2018-09-19T05:29:20.736Z,5.70
2018-09-19T05:31:51.312Z,5.88
2018-09-19T05:34:22.019Z,5.66
2018-09-19T05:36:52.713Z,5.65
2018-09-19T05:39:23.465Z,6.03
2018-09-19T05:41:54.928Z,6.18
2018-09-19T05:44:25.664Z,5.58
2018-09-19T05:46:56.522Z,4.75
2018-09-19T05:49:28.065Z,5.42
2018-09-19T05:51:59.069Z,5.50
2018-09-19T05:54:29.760Z,6.22
2018-09-19T05:57:00.682Z,5.35
2018-09-19T05:59:31.695Z,5.90
2018-09-19T06:02:02.978Z,5.72
2018-09-19T06:04:33.702Z,4.85
2018-09-19T06:07:04.837Z,5.55
2018-09-19T06:09:35.645Z,6.08
2018-09-19T06:12:06.544Z,5.42
2018-09-19T06:14:37.507Z,5.37
2018-09-19T06:17:08.737Z,5.46
2018-09-19T06:19:39.780Z,5.40
2018-09-19T06:22:10.828Z,5.55
2018-09-19T06:24:41.725Z,5.42
2018-09-19T06:27:12.762Z,5.65
2018-09-19T06:29:43.739Z,5.60
2018-09-19T06:32:14.583Z,5.60
2018-09-19T06:34:45.904Z,5.80
2018-09-19T06:37:16.731Z,5.70
2018-09-19T06:39:48.695Z,5.65
2018-09-19T06:42:18.527Z,5.10
2018-09-19T06:44:49.651Z,5.45
2018-09-19T06:47:20.552Z,5.62
2018-09-19T06:49:51.605Z,5.97
2018-09-19T06:52:22.632Z,5.72
2018-09-19T06:54:53.905Z,6.20
2018-09-19T06:57:24.753Z,5.87
2018-09-19T06:59:55.907Z,6.03
2018-09-19T07:02:26.698Z,6.00
2018-09-19T07:04:57.629Z,6.10
2018-09-19T07:07:28.576Z,5.78
2018-09-19T07:10:05.588Z,5.30
2018-09-19T07:12:35.424Z,6.30
2018-09-19T07:15:05.493Z,5.40
2018-09-19T07:17:35.367Z,5.50
2018-09-19T07:20:05.479Z,5.40
2018-09-19T07:22:35.657Z,5.37
2018-09-19T07:25:05.621Z,4.90
2018-09-19T07:27:36.799Z,5.05
2018-09-19T07:30:08.013Z,4.97
2018-09-19T07:32:38.881Z,5.20
2018-09-19T07:35:09.976Z,5.08
2018-09-19T07:37:40.738Z,4.72
2018-09-19T07:40:11.698Z,4.78
2018-09-19T07:42:43.740Z,5.28
2018-09-19T07:45:13.764Z,5.13
2018-09-19T07:47:44.584Z,4.97
2018-09-19T07:50:15.582Z,4.90
2018-09-19T07:52:46.408Z,5.33
2018-09-19T07:55:18.323Z,5.25
2018-09-19T07:57:49.003Z,4.95
2018-09-19T08:00:19.946Z,5.33
2018-09-19T08:02:50.782Z,4.92
2018-09-19T08:05:22.056Z,5.03
2018-09-19T08:07:52.701Z,4.78
2018-09-19T08:10:23.810Z,5.15
2018-09-19T08:12:54.641Z,5.10
2018-09-19T08:15:25.544Z,4.72
2018-09-19T08:17:56.526Z,5.25
2018-09-19T08:20:27.739Z,5.00
2018-09-19T08:22:58.654Z,5.12
2018-09-19T08:25:29.473Z,5.22
2018-09-19T08:28:00.506Z,4.90
2018-09-19T08:30:31.775Z,5.64
2018-09-19T08:33:02.865Z,5.45
2018-09-19T08:35:33.728Z,4.95
2018-09-19T08:38:04.654Z,5.40
2018-09-19T08:40:35.432Z,4.37
2018-09-19T08:43:06.798Z,5.02
2018-09-19T08:45:37.597Z,4.75
2018-09-19T08:48:08.661Z,4.75
2018-09-19T08:50:39.585Z,5.12
2018-09-19T08:53:13.276Z,5.28
2018-09-19T08:55:43.602Z,4.87
2018-09-19T08:58:13.438Z,4.70
2018-09-19T09:00:45.659Z,4.52
2018-09-19T09:03:15.553Z,4.93
2018-09-19T09:05:45.500Z,5.10
2018-09-19T09:08:16.565Z,4.80
2018-09-19T09:10:47.472Z,5.30
2018-09-19T09:13:18.517Z,4.72
2018-09-19T09:15:49.446Z,5.00
2018-09-19T09:18:20.898Z,4.60
2018-09-19T09:20:51.736Z,5.25
2018-09-19T09:23:22.648Z,5.15
2018-09-19T09:25:53.544Z,4.60
2018-09-19T09:28:24.657Z,4.75
2018-09-19T09:30:55.554Z,4.75
2018-09-19T09:33:26.553Z,4.28
2018-09-19T09:35:57.505Z,4.95
2018-09-19T09:38:28.517Z,4.72
2018-09-19T09:40:59.775Z,4.80
2018-09-19T09:43:30.747Z,4.85
2018-09-19T09:46:01.617Z,5.20
2018-09-19T09:48:32.998Z,4.92
2018-09-19T09:51:03.697Z,4.65
2018-09-19T09:53:34.689Z,4.97
2018-09-19T09:56:05.762Z,4.53
2018-09-19T09:58:36.627Z,4.67
2018-09-19T10:01:07.642Z,4.40
2018-09-19T10:03:38.555Z,4.50
2018-09-19T10:06:09.449Z,5.05
2018-09-19T10:08:41.087Z,5.00
2018-09-19T10:11:11.681Z,4.53
2018-09-19T10:13:42.635Z,5.03
2018-09-19T10:16:13.687Z,4.87
2018-09-19T10:18:44.649Z,4.75
2018-09-19T10:21:15.676Z,4.80
2018-09-19T10:23:46.860Z,5.03
2018-09-19T10:26:17.719Z,4.80
2018-09-19T10:28:49.805Z,4.70
2018-09-19T10:31:19.616Z,4.77
2018-09-19T10:33:49.501Z,4.70
2018-09-19T10:36:20.865Z,4.58
2018-09-19T10:38:51.881Z,4.47
2018-09-19T10:41:23.696Z,4.32
2018-09-19T10:43:53.772Z,4.47
2018-09-19T10:46:28.562Z,4.70
2018-09-19T10:48:58.525Z,4.83
2018-09-19T10:51:28.434Z,5.03
2018-09-19T10:53:58.205Z,4.50
2018-09-19T10:56:28.786Z,4.00
2018-09-19T10:58:59.662Z,4.17
2018-09-19T11:01:30.583Z,4.87
2018-09-19T11:04:01.788Z,4.67
2018-09-19T11:06:32.639Z,5.33
2018-09-19T11:09:04.263Z,4.60
2018-09-19T11:11:34.806Z,4.82
2018-09-19T11:14:05.735Z,4.62
2018-09-19T11:16:36.546Z,4.50
2018-09-19T11:19:07.622Z,4.80
2018-09-19T11:21:40.121Z,4.37
2018-09-19T11:24:10.141Z,4.30
2018-09-19T11:26:40.708Z,4.03
2018-09-19T11:29:11.613Z,4.45
2018-09-19T11:31:42.130Z,4.70
2018-09-19T11:34:12.794Z,4.33
2018-09-19T11:36:43.699Z,4.90
2018-09-19T11:39:14.316Z,4.80
2018-09-19T11:41:44.732Z,4.40
2018-09-19T11:44:15.742Z,4.60
2018-09-19T11:46:46.536Z,4.70
2018-09-19T11:49:17.733Z,4.20
2018-09-19T11:51:48.567Z,4.55
2018-09-19T11:54:19.611Z,4.55
2018-09-19T11:56:50.579Z,4.42
2018-09-19T11:59:21.595Z,4.15
2018-09-19T12:01:52.621Z,4.37
2018-09-19T12:04:23.645Z,4.12
2018-09-19T12:06:54.500Z,4.40
2018-09-19T12:09:25.933Z,5.08
2018-09-19T12:11:56.777Z,4.75
2018-09-19T12:14:28.144Z,4.65
2018-09-19T12:16:59.136Z,4.28
2018-09-19T12:19:32.170Z,4.33
2018-09-19T12:22:02.370Z,4.37
2018-09-19T12:24:32.419Z,4.10
2018-09-19T12:27:02.867Z,4.48
2018-09-19T12:29:34.015Z,4.40
2018-09-19T12:32:04.740Z,4.60
2018-09-19T12:34:34.728Z,4.60
2018-09-19T12:37:05.671Z,4.05
2018-09-19T12:39:36.684Z,4.37
2018-09-19T12:42:07.766Z,4.60
2018-09-19T12:44:38.758Z,4.35
2018-09-19T12:47:09.525Z,4.00
2018-09-19T12:49:40.784Z,4.42
2018-09-19T12:52:11.592Z,4.40
2018-09-19T12:54:42.861Z,4.78
2018-09-19T12:57:13.655Z,4.50
2018-09-19T12:59:44.606Z,4.12
2018-09-19T13:02:15.715Z,4.83
2018-09-19T13:04:46.546Z,4.70
2018-09-19T13:07:17.810Z,4.53
2018-09-19T13:09:48.648Z,3.85
2018-09-19T13:12:22.845Z,4.50
2018-09-19T13:14:52.958Z,4.47
2018-09-19T13:17:22.855Z,4.20
2018-09-19T13:19:52.957Z,4.20
2018-09-19T13:22:23.993Z,4.00
2018-09-19T13:24:54.748Z,3.87
2018-09-19T13:27:25.855Z,4.05
2018-09-19T13:29:55.858Z,4.30
2018-09-19T13:32:26.753Z,3.87
2018-09-19T13:34:57.730Z,4.60
2018-09-19T13:37:28.688Z,4.05
2018-09-19T13:39:59.679Z,4.17
2018-09-19T13:42:30.580Z,3.60
2018-09-19T13:45:01.861Z,4.45
2018-09-19T13:47:33.184Z,4.40
2018-09-19T13:50:16.801Z,4.30
2018-09-19T13:52:46.801Z,3.87
2018-09-19T13:55:17.330Z,4.62
2018-09-19T13:57:47.372Z,4.40
2018-09-19T14:00:17.219Z,4.07
2018-09-19T14:02:47.433Z,4.37
2018-09-19T14:05:17.371Z,4.03
2018-09-19T14:07:47.398Z,4.30
2018-09-19T14:10:17.378Z,4.60
2018-09-19T14:12:47.199Z,4.33
2018-09-19T14:15:17.640Z,4.22
2018-09-19T14:17:47.534Z,4.30
2018-09-19T14:20:17.390Z,4.60
2018-09-19T14:22:47.493Z,4.37
2018-09-19T14:25:17.441Z,4.40
2018-09-19T14:27:48.618Z,4.35
2018-09-19T14:30:19.505Z,4.08
2018-09-19T14:32:50.538Z,4.90
2018-09-19T14:35:21.910Z,3.67
2018-09-19T14:37:52.730Z,4.08
2018-09-19T14:40:23.754Z,4.22
2018-09-19T14:42:54.708Z,4.00
2018-09-19T14:45:25.587Z,3.75
2018-09-19T14:47:56.556Z,4.17
2018-09-19T14:50:27.423Z,4.15
2018-09-19T14:52:58.817Z,3.76
2018-09-19T14:55:29.825Z,4.50
2018-09-19T14:58:01.294Z,4.10
2018-09-19T15:00:31.870Z,4.40
2018-09-19T15:03:02.863Z,4.53
2018-09-19T15:05:33.889Z,3.98
2018-09-19T15:08:04.801Z,4.37
2018-09-19T15:10:35.656Z,4.40
2018-09-19T15:13:06.605Z,3.95
2018-09-19T15:15:37.781Z,3.60
2018-09-19T15:18:08.848Z,4.10
2018-09-19T15:20:39.664Z,3.42
2018-09-19T15:23:10.575Z,3.75
2018-09-19T15:25:41.404Z,3.87
2018-09-19T15:28:12.886Z,3.70
2018-09-19T15:30:43.886Z,4.40
2018-09-19T15:33:14.895Z,3.92
2018-09-19T15:35:45.769Z,3.87
2018-09-19T15:38:16.743Z,4.10
2018-09-19T15:40:47.566Z,3.98
2018-09-19T15:43:18.530Z,4.12
2018-09-19T15:45:49.974Z,4.00
2018-09-19T15:48:20.805Z,4.55
2018-09-19T15:50:51.812Z,3.90
2018-09-19T15:53:23.621Z,4.20
2018-09-19T15:55:53.591Z,4.27
2018-09-19T15:58:24.684Z,4.10
2018-09-19T16:00:55.552Z,4.37
2018-09-19T16:03:27.437Z,3.98
2018-09-19T16:05:57.974Z,4.28
2018-09-19T16:08:29.009Z,4.60
2018-09-19T16:10:59.704Z,4.30
2018-09-19T16:13:30.638Z,4.28
2018-09-19T16:16:01.497Z,3.90
2018-09-19T16:18:32.582Z,4.42
2018-09-19T16:21:03.445Z,4.55
2018-09-19T16:23:34.639Z,4.37
2018-09-19T16:26:11.182Z,4.33
2018-09-19T16:28:41.310Z,4.60
2018-09-19T16:31:11.554Z,4.40
2018-09-19T16:33:41.460Z,4.65
2018-09-19T16:36:11.440Z,4.90
2018-09-19T16:38:41.346Z,4.30
2018-09-19T16:41:12.085Z,4.54
2018-09-19T16:43:42.765Z,4.83
2018-09-19T16:46:13.936Z,4.67
2018-09-19T16:48:44.792Z,5.00
2018-09-19T16:51:15.691Z,5.20
2018-09-19T16:53:46.656Z,4.87
2018-09-19T16:56:19.496Z,4.77
2018-09-19T16:58:49.635Z,5.23
2018-09-19T17:01:19.702Z,4.53
2018-09-19T17:03:51.463Z,4.80
2018-09-19T17:06:22.321Z,4.80
2018-09-19T17:08:53.019Z,5.06
2018-09-19T17:11:24.099Z,4.75
2018-09-19T17:13:54.794Z,4.67
2018-09-19T17:16:25.723Z,5.00
2018-09-19T17:18:56.535Z,4.90
2018-09-19T17:21:27.646Z,4.72
2018-09-19T17:23:59.099Z,5.62
2018-09-19T17:26:30.937Z,5.83
2018-09-19T17:29:01.038Z,5.63
2018-09-19T17:31:31.239Z,5.87
2018-09-19T17:34:01.958Z,5.10
2018-09-19T17:36:32.865Z,5.70
2018-09-19T17:39:05.216Z,5.45
2018-09-19T17:41:35.075Z,6.67
2018-09-19T17:44:05.902Z,7.05
2018-09-19T17:46:37.262Z,6.40
2018-09-19T17:49:07.832Z,5.78
2018-09-19T17:51:38.925Z,5.62
2018-09-19T17:54:09.715Z,5.50
2018-09-19T17:56:40.691Z,6.42
2018-09-19T17:59:12.704Z,5.70
2018-09-19T18:01:42.783Z,5.57
2018-09-19T18:04:15.028Z,5.15
2018-09-19T18:06:44.966Z,5.90
2018-09-19T18:09:15.970Z,5.62
2018-09-19T18:11:46.976Z,5.22
2018-09-19T18:14:17.818Z,5.50
2018-09-19T18:16:48.703Z,5.87
2018-09-19T18:19:19.763Z,5.72
2018-09-19T18:21:51.435Z,5.65
2018-09-19T18:24:21.990Z,5.28
2018-09-19T18:26:52.955Z,5.80
2018-09-19T18:29:23.910Z,5.80
2018-09-19T18:31:54.242Z,6.00
2018-09-19T18:34:25.400Z,7.02
2018-09-19T18:36:56.219Z,6.80
2018-09-19T18:39:26.865Z,20.10
2018-09-19T18:41:58.139Z,6.72
2018-09-19T18:44:28.769Z,6.80
2018-09-19T18:46:59.899Z,6.15
2018-09-19T18:49:31.329Z,7.28
2018-09-19T18:52:02.091Z,7.02
2018-09-19T18:54:33.747Z,6.70
2018-09-19T18:57:03.768Z,6.33
2018-09-19T18:59:34.709Z,6.28
2018-09-19T19:02:08.560Z,6.92
2018-09-19T19:04:40.685Z,7.00
2018-09-19T19:07:10.821Z,7.23
2018-09-19T19:09:41.024Z,12.00
2018-09-19T19:12:10.873Z,17.12
2018-09-19T19:14:40.794Z,8.73
2018-09-19T19:17:11.758Z,9.18
2018-09-19T19:19:42.747Z,12.90
2018-09-19T19:22:14.537Z,10.48
2018-09-19T19:24:44.956Z,10.05
2018-09-19T19:27:15.902Z,11.10
2018-09-19T19:29:46.907Z,11.68
2018-09-19T19:32:18.017Z,9.23
2018-09-19T19:34:48.807Z,9.13
2018-09-19T19:37:19.733Z,8.50
2018-09-19T19:39:50.750Z,7.37
2018-09-19T19:42:21.621Z,7.08
2018-09-19T19:44:52.944Z,7.45
2018-09-19T19:47:24.359Z,7.70
2018-09-19T19:49:55.053Z,7.20
2018-09-19T19:52:25.866Z,7.37
2018-09-19T19:54:57.870Z,7.25
2018-09-19T19:57:27.936Z,7.50
2018-09-19T19:59:58.952Z,6.75
2018-09-19T20:02:29.793Z,7.10
2018-09-19T20:05:01.023Z,7.20
2018-09-19T20:07:31.691Z,7.30
2018-09-19T20:10:02.721Z,7.12
2018-09-19T20:12:33.579Z,7.30
2018-09-19T20:15:04.708Z,6.92
2018-09-19T20:17:35.526Z,7.90
2018-09-19T20:20:07.143Z,7.82
2018-09-19T20:22:36.960Z,7.57
2018-09-19T20:25:08.073Z,9.10
2018-09-19T20:27:39.220Z,7.83
2018-09-19T20:30:09.989Z,8.32
2018-09-19T20:32:40.850Z,7.15
2018-09-19T20:35:11.915Z,8.08
2018-09-19T20:37:42.874Z,7.75
2018-09-19T20:40:13.920Z,20.55
2018-09-19T20:42:44.925Z,10.55
2018-09-19T20:45:15.621Z,9.73
2018-09-19T20:47:46.468Z,9.45
2018-09-19T20:50:17.793Z,9.52
2018-09-19T20:52:48.726Z,11.40
2018-09-19T20:55:19.578Z,11.75
2018-09-19T20:57:50.934Z,10.63
2018-09-19T21:00:21.745Z,10.13
2018-09-19T21:02:52.690Z,11.68
2018-09-19T21:05:23.642Z,11.50
2018-09-19T21:07:54.846Z,14.00
2018-09-19T21:10:25.687Z,12.47
2018-09-19T21:12:56.604Z,12.20
2018-09-19T21:15:27.698Z,11.38
2018-09-19T21:17:58.634Z,12.18
2018-09-19T21:20:29.537Z,11.10
2018-09-19T21:23:00.581Z,13.40
2018-09-19T21:25:31.833Z,13.76
2018-09-19T21:28:02.811Z,13.15
2018-09-19T21:30:33.822Z,14.58
2018-09-19T21:33:04.807Z,15.48
2018-09-19T21:35:36.630Z,13.45
2018-09-19T21:38:06.622Z,14.83
2018-09-19T21:40:37.504Z,13.98
2018-09-19T21:43:08.946Z,13.24
2018-09-19T21:45:39.698Z,12.03
2018-09-19T21:48:10.633Z,12.75
2018-09-19T21:50:41.506Z,12.28
2018-09-19T21:53:12.983Z,12.50
2018-09-19T21:55:43.674Z,12.63
2018-09-19T21:58:14.625Z,13.30
2018-09-19T22:00:50.028Z,12.73
2018-09-19T22:03:20.631Z,13.78
2018-09-19T22:05:50.625Z,14.00
2018-09-19T22:08:20.492Z,13.57
2018-09-19T22:10:50.420Z,14.93
2018-09-19T22:13:20.907Z,14.68
2018-09-19T22:15:51.805Z,14.93
2018-09-19T22:18:22.634Z,14.58
2018-09-19T22:20:53.508Z,15.63
2018-09-19T22:23:24.818Z,15.44
2018-09-19T22:25:55.922Z,15.05
2018-09-19T22:28:26.849Z,15.63
2018-09-19T22:30:57.785Z,15.72
2018-09-19T22:33:28.754Z,15.43
2018-09-19T22:35:59.707Z,14.90
2018-09-19T22:38:30.613Z,15.05
2018-09-19T22:41:01.650Z,14.15
2018-09-19T22:43:32.581Z,14.65
2018-09-19T22:46:04.565Z,13.84
2018-09-19T22:48:34.664Z,13.90
2018-09-19T22:51:05.554Z,13.93
2018-09-19T22:53:37.096Z,13.76
2018-09-19T22:56:07.897Z,12.75
2018-09-19T22:58:38.751Z,13.62
2018-09-19T23:01:09.634Z,13.98
2018-09-19T23:03:40.605Z,13.88
2018-09-19T23:06:11.563Z,14.70
2018-09-19T23:08:42.830Z,15.18
2018-09-19T23:11:14.034Z,14.33
2018-09-19T23:13:44.854Z,14.40
2018-09-19T23:16:15.747Z,14.18
2018-09-19T23:18:46.796Z,13.70
2018-09-19T23:21:17.615Z,13.25
2018-09-19T23:23:48.546Z,14.33
2018-09-19T23:26:19.742Z,13.56
2018-09-19T23:28:50.722Z,13.68
2018-09-19T23:31:21.250Z,13.75
2018-09-19T23:33:52.018Z,13.40
2018-09-19T23:36:22.672Z,13.55
2018-09-19T23:38:53.770Z,13.60
2018-09-19T23:41:30.451Z,12.95
2018-09-19T23:44:00.477Z,14.17
2018-09-19T23:46:30.318Z,14.33
2018-09-19T23:49:00.744Z,14.42
2018-09-19T23:51:30.573Z,14.37
2018-09-19T23:54:00.410Z,13.93
2018-09-19T23:56:31.069Z,13.44
2018-09-19T23:59:02.056Z,13.98
